Time;durP1;ratioP1;P1;durP2;ratioP2;P2;SDS_P1;SDS_P2;PMS_P1;PMS_P2;Temp;Humidity;BMP_temperature;BMP_pressure;BME280_temperature;BME280_humidity;BME280_pressure;Samples;Min_cycle;Max_cycle;Signal;HPM_P1;HPM_P2
2022/04/12 00:00:55;;;;;;;11.07;6.22;;;6.30;1.00;;;;;;5043911;28;20029;-81
2022/04/12 00:03:21;;;;;;;11.98;6.63;;;6.30;1.00;;;;;;5048622;28;20055;-81
2022/04/12 00:05:46;;;;;;;10.75;7.03;;;6.30;1.00;;;;;;5054547;28;20005;-81
2022/04/12 00:08:12;;;;;;;11.27;6.82;;;6.20;99.90;;;;;;5034514;28;20625;-81
2022/04/12 00:10:38;;;;;;;11.90;7.20;;;6.20;99.90;;;;;;5034349;28;20010;-81
2022/04/12 00:13:04;;;;;;;11.57;6.68;;;6.20;1.00;;;;;;5034701;28;20029;-81
2022/04/12 00:15:29;;;;;;;13.52;6.43;;;6.20;99.90;;;;;;5034847;28;20048;-81
2022/04/12 00:20:41;;;;;;;9.32;6.72;;;6.20;1.00;;;;;;5045473;28;20105;-81
2022/04/12 00:23:07;;;;;;;11.95;7.32;;;6.10;1.00;;;;;;5033974;28;20021;-81
2022/04/12 00:25:33;;;;;;;12.15;6.50;;;5.90;1.00;;;;;;5030594;28;20242;-81
2022/04/12 00:27:59;;;;;;;12.80;7.72;;;5.80;1.00;;;;;;5032191;28;20061;-81
2022/04/12 00:30:28;;;;;;;12.05;7.55;;;5.90;1.00;;;;;;5031699;28;20033;-80
2022/04/12 00:32:53;;;;;;;10.60;7.00;;;6.00;1.00;;;;;;5037934;28;20041;-80
2022/04/12 00:35:21;;;;;;;12.77;7.15;;;5.90;1.00;;;;;;5039958;28;20017;-81
2022/04/12 00:37:47;;;;;;;13.80;6.93;;;5.80;1.00;;;;;;5030943;28;20097;-80
2022/04/12 00:40:15;;;;;;;15.05;8.88;;;5.70;1.00;;;;;;5026451;28;20086;-80
2022/04/12 00:42:40;;;;;;;11.80;6.90;;;5.70;1.00;;;;;;5030732;28;20104;-80
2022/04/12 00:45:06;;;;;;;13.85;7.63;;;5.60;1.00;;;;;;5044382;28;20093;-80
2022/04/12 00:47:32;;;;;;;13.93;8.05;;;5.60;1.00;;;;;;5036949;28;20044;-80
2022/04/12 00:49:58;;;;;;;12.98;8.05;;;5.60;1.00;;;;;;5045344;28;20029;-80
2022/04/12 00:52:26;;;;;;;17.50;8.65;;;5.50;1.00;;;;;;5027019;28;20084;-81
2022/04/12 00:54:53;;;;;;;14.85;8.88;;;5.40;1.00;;;;;;5037315;28;20052;-80
2022/04/12 00:57:19;;;;;;;13.65;7.65;;;5.40;1.00;;;;;;5044463;28;20620;-80
2022/04/12 00:59:47;;;;;;;13.13;7.95;;;5.30;1.00;;;;;;5028757;28;20037;-80
2022/04/12 01:02:13;;;;;;;11.88;7.30;;;5.40;1.00;;;;;;5018129;28;20036;-80
2022/04/12 01:04:38;;;;;;;12.88;8.23;;;5.30;1.00;;;;;;5024438;28;20108;-80
2022/04/12 01:07:04;;;;;;;16.35;8.52;;;5.30;1.00;;;;;;5022960;28;20026;-80
2022/04/12 01:09:30;;;;;;;14.25;8.52;;;5.30;1.00;;;;;;5022887;28;20026;-79
2022/04/12 01:11:57;;;;;;;17.67;8.65;;;5.20;1.00;;;;;;5025104;28;20064;-80
2022/04/12 01:14:25;;;;;;;17.92;9.57;;;5.30;1.00;;;;;;5026271;28;20050;-79
2022/04/12 01:16:51;;;;;;;13.13;8.10;;;5.30;1.00;;;;;;5044053;28;20044;-80
2022/04/12 01:19:17;;;;;;;17.95;10.43;;;5.10;1.00;;;;;;5033357;28;20038;-80
2022/04/12 01:21:52;;;;;;;13.60;8.43;;;5.20;1.00;;;;;;5028425;28;20060;-80
2022/04/12 01:24:18;;;;;;;13.50;9.07;;;5.20;1.00;;;;;;5035894;28;20133;-80
2022/04/12 01:26:44;;;;;;;13.27;7.88;;;5.30;1.00;;;;;;5034269;28;20036;-80
2022/04/12 01:29:10;;;;;;;16.05;8.77;;;5.30;1.00;;;;;;5023930;28;20048;-80
2022/04/12 01:31:35;;;;;;;14.27;8.82;;;5.20;1.00;;;;;;5021827;28;20537;-79
2022/04/12 01:34:02;;;;;;;16.33;8.38;;;5.20;1.00;;;;;;5027035;28;20713;-80
2022/04/12 01:36:28;;;;;;;15.25;9.10;;;5.10;1.00;;;;;;5025138;28;20049;-80
2022/04/12 01:38:53;;;;;;;18.08;10.30;;;5.10;1.00;;;;;;5036204;28;20053;-80
2022/04/12 01:41:19;;;;;;;15.05;8.82;;;5.10;1.00;;;;;;5031793;28;20042;-79
2022/04/12 01:43:44;;;;;;;14.98;8.65;;;5.20;1.00;;;;;;5037764;28;20026;-79
2022/04/12 01:46:10;;;;;;;15.63;9.90;;;5.00;1.00;;;;;;5032347;28;20044;-80
2022/04/12 01:48:35;;;;;;;17.58;9.88;;;5.00;1.00;;;;;;5030250;28;20029;-80
2022/04/12 01:51:01;;;;;;;16.33;8.65;;;5.00;1.00;;;;;;5037443;28;20135;-80
2022/04/12 01:53:27;;;;;;;16.13;10.07;;;4.90;1.00;;;;;;5045839;28;20084;-79
2022/04/12 01:55:52;;;;;;;16.35;9.13;;;5.10;1.00;;;;;;5041360;28;20036;-80
2022/04/12 01:58:18;;;;;;;17.38;9.95;;;5.00;1.00;;;;;;5026343;28;20692;-79
2022/04/12 02:00:44;;;;;;;17.27;10.00;;;5.00;1.00;;;;;;5027529;28;20037;-80
2022/04/12 02:03:10;;;;;;;14.90;9.57;;;5.10;1.00;;;;;;5041513;28;20010;-80
2022/04/12 02:05:35;;;;;;;19.00;9.25;;;5.10;1.00;;;;;;5048908;28;20049;-80
2022/04/12 02:08:02;;;;;;;15.88;9.95;;;5.10;1.00;;;;;;5048648;28;20026;-80
2022/04/12 02:10:27;;;;;;;21.38;9.93;;;5.40;1.00;;;;;;5054625;28;20041;-80
2022/04/12 02:12:53;;;;;;;15.13;8.68;;;5.30;1.00;;;;;;5056747;28;20041;-80
2022/04/12 02:15:19;;;;;;;17.17;9.35;;;5.10;1.00;;;;;;5047875;28;20069;-80
2022/04/12 02:17:44;;;;;;;18.58;10.30;;;5.00;1.00;;;;;;5034869;28;20026;-80
2022/04/12 02:20:10;;;;;;;16.80;9.70;;;5.00;1.00;;;;;;5049298;28;20428;-80
2022/04/12 02:22:36;;;;;;;14.55;8.93;;;5.00;1.00;;;;;;5053154;28;20029;-80
2022/04/12 02:25:04;;;;;;;14.52;8.75;;;4.90;1.00;;;;;;5034871;28;20063;-80
2022/04/12 02:27:29;;;;;;;14.85;9.55;;;5.00;1.00;;;;;;5040197;28;20037;-79
2022/04/12 02:29:55;;;;;;;17.55;9.77;;;4.90;1.00;;;;;;5034619;28;20032;-80
2022/04/12 02:32:40;;;;;;;16.50;9.40;;;4.90;1.00;;;;;;5040425;28;20509;-80
2022/04/12 02:35:06;;;;;;;14.70;9.15;;;5.00;1.00;;;;;;5029829;28;20041;-80
2022/04/12 02:37:31;;;;;;;17.95;11.05;;;5.00;1.00;;;;;;5049091;28;20013;-80
2022/04/12 02:39:58;;;;;;;16.38;10.10;;;5.00;1.00;;;;;;5047794;28;20421;-80
2022/04/12 02:42:24;;;;;;;17.85;9.40;;;4.90;1.00;;;;;;5037861;28;20026;-79
2022/04/12 02:44:49;;;;;;;18.30;10.30;;;4.90;1.00;;;;;;5038621;28;20040;-80
2022/04/12 02:47:15;;;;;;;17.38;10.63;;;4.80;1.00;;;;;;5029723;28;20022;-80
2022/04/12 02:49:41;;;;;;;16.25;10.32;;;4.90;1.00;;;;;;5047549;28;20026;-80
2022/04/12 02:52:08;;;;;;;15.98;9.93;;;4.90;1.00;;;;;;5050366;28;20061;-80
2022/04/12 02:54:34;;;;;;;19.23;11.65;;;4.80;1.00;;;;;;5033664;28;20033;-80
2022/04/12 02:57:00;;;;;;;16.63;9.77;;;4.80;1.00;;;;;;5049250;28;20428;-80
2022/04/12 02:59:25;;;;;;;16.80;9.68;;;4.90;1.00;;;;;;5034263;28;20030;-80
2022/04/12 03:01:51;;;;;;;17.88;9.95;;;4.90;1.00;;;;;;5039168;28;20030;-80
2022/04/12 03:04:17;;;;;;;20.50;10.40;;;4.90;1.00;;;;;;5037266;28;20036;-80
2022/04/12 03:06:42;;;;;;;13.90;8.13;;;5.00;1.00;;;;;;5028739;28;20073;-80
2022/04/12 03:09:08;;;;;;;17.33;9.82;;;4.90;1.00;;;;;;5029675;28;20030;-79
2022/04/12 03:11:34;;;;;;;17.33;9.73;;;5.00;1.00;;;;;;5038018;28;20078;-80
2022/04/12 03:13:59;;;;;;;15.30;9.80;;;4.90;1.00;;;;;;5047322;28;20053;-79
2022/04/12 03:16:25;;;;;;;15.32;9.00;;;4.80;1.00;;;;;;5038233;28;20022;-80
2022/04/12 03:18:51;;;;;;;16.05;8.88;;;4.70;1.00;;;;;;5045752;28;20052;-79
2022/04/12 03:21:16;;;;;;;17.20;10.88;;;4.90;1.00;;;;;;5032929;28;20022;-80
2022/04/12 03:23:42;;;;;;;16.85;11.15;;;5.00;1.00;;;;;;5034922;28;20702;-80
2022/04/12 03:26:08;;;;;;;17.77;10.50;;;5.10;1.00;;;;;;5046029;28;20568;-80
2022/04/12 03:28:33;;;;;;;14.18;8.45;;;5.10;1.00;;;;;;5031258;28;20092;-80
2022/04/12 03:30:59;;;;;;;18.98;10.68;;;5.10;1.00;;;;;;5049811;28;20036;-80
2022/04/12 03:33:25;;;;;;;17.27;10.38;;;5.10;1.00;;;;;;5050167;28;20073;-79
2022/04/12 03:35:50;;;;;;;17.00;10.38;;;5.00;1.00;;;;;;5050878;28;20081;-80
2022/04/12 03:38:16;;;;;;;15.20;9.68;;;5.10;1.00;;;;;;5041972;28;20026;-80
2022/04/12 03:40:42;;;;;;;18.70;10.43;;;5.20;1.00;;;;;;5050813;28;20017;-80
2022/04/12 03:43:08;;;;;;;14.27;8.40;;;5.20;1.00;;;;;;5028791;28;20547;-79
2022/04/12 03:45:33;;;;;;;20.17;10.00;;;5.20;1.00;;;;;;5027408;28;20022;-80
2022/04/12 03:48:00;;;;;;;18.73;9.45;;;5.20;1.00;;;;;;5045366;28;20022;-80
2022/04/12 03:50:26;;;;;;;19.73;10.68;;;5.20;1.00;;;;;;5034811;28;20033;-80
2022/04/12 03:52:52;;;;;;;15.60;9.10;;;5.20;1.00;;;;;;5035281;28;20033;-80
2022/04/12 03:55:30;;;;;;;19.00;10.30;;;5.20;1.00;;;;;;5044759;28;20641;-80
2022/04/12 03:58:00;;;;;;;16.17;9.13;;;5.10;1.00;;;;;;5026977;28;20033;-80
2022/04/12 04:00:27;;;;;;;21.70;11.10;;;5.20;1.00;;;;;;5035118;28;20505;-79
2022/04/12 04:02:52;;;;;;;17.98;11.43;;;5.20;1.00;;;;;;5032537;28;20030;-79
2022/04/12 04:05:18;;;;;;;19.20;11.00;;;5.10;1.00;;;;;;5040657;28;20030;-80
2022/04/12 04:07:43;;;;;;;18.17;10.70;;;5.00;1.00;;;;;;5040356;28;20022;-79
2022/04/12 04:10:09;;;;;;;18.77;10.63;;;5.00;1.00;;;;;;5032286;28;20218;-79
2022/04/12 04:12:34;;;;;;;16.58;10.25;;;5.00;1.00;;;;;;5035173;28;20036;-79
2022/04/12 04:15:00;;;;;;;18.70;10.70;;;5.00;1.00;;;;;;5035859;28;20081;-79
2022/04/12 04:17:26;;;;;;;19.10;10.63;;;5.10;1.00;;;;;;5047193;28;20040;-79
2022/04/12 04:19:52;;;;;;;16.55;10.15;;;5.10;1.00;;;;;;5030997;28;20017;-79
2022/04/12 04:22:17;;;;;;;17.67;9.30;;;5.10;1.00;;;;;;5035951;28;20080;-80
2022/04/12 04:24:43;;;;;;;15.60;9.70;;;5.00;1.00;;;;;;5047153;28;20025;-80
2022/04/12 04:27:08;;;;;;;14.32;8.80;;;5.20;1.00;;;;;;5045591;28;20030;-80
2022/04/12 04:29:35;;;;;;;16.17;9.45;;;5.10;1.00;;;;;;5047400;28;20048;-80
2022/04/12 04:32:01;;;;;;;15.85;9.48;;;5.20;1.00;;;;;;5037461;28;20037;-79
2022/04/12 04:34:26;;;;;;;17.92;10.00;;;5.20;1.00;;;;;;5035026;28;20017;-79
2022/04/12 04:36:52;;;;;;;20.83;10.60;;;5.30;1.00;;;;;;5036968;28;20040;-79
2022/04/12 04:39:17;;;;;;;16.02;9.40;;;5.40;1.00;;;;;;5016960;28;20030;-80
2022/04/12 04:41:43;;;;;;;15.77;9.70;;;5.30;1.00;;;;;;5016124;28;20022;-79
2022/04/12 04:44:20;;;;;;;15.65;10.00;;;5.40;1.00;;;;;;5005120;28;20025;-79
2022/04/12 04:46:46;;;;;;;14.50;9.55;;;5.40;1.00;;;;;;5003681;28;20031;-79
2022/04/12 04:49:14;;;;;;;14.32;9.23;;;5.50;1.00;;;;;;5016935;28;20034;-79
2022/04/12 04:51:41;;;;;;;17.15;9.80;;;5.50;99.90;;;;;;5017287;28;20243;-79
2022/04/12 04:54:07;;;;;;;16.58;9.98;;;5.50;99.90;;;;;;5008571;28;20022;-79
2022/04/12 04:56:32;;;;;;;16.45;10.45;;;5.50;99.90;;;;;;5024970;28;20029;-79
2022/04/12 04:58:58;;;;;;;17.73;9.13;;;5.50;99.90;;;;;;5013955;28;20033;-79
2022/04/12 05:01:24;;;;;;;18.48;10.23;;;5.50;99.90;;;;;;5017700;28;20080;-79
2022/04/12 05:03:50;;;;;;;18.17;9.85;;;5.70;99.90;;;;;;5032641;28;20032;-79
2022/04/12 05:06:16;;;;;;;15.73;10.27;;;5.70;99.90;;;;;;5035213;28;20420;-79
2022/04/12 05:08:41;;;;;;;17.58;10.63;;;5.70;99.90;;;;;;5035352;28;20022;-79
2022/04/12 05:11:07;;;;;;;15.32;9.90;;;5.80;99.90;;;;;;5038590;28;20045;-80
2022/04/12 05:13:32;;;;;;;17.27;9.52;;;5.80;99.90;;;;;;5041080;28;20026;-79
2022/04/12 05:15:58;;;;;;;15.45;10.10;;;5.80;99.90;;;;;;5029404;28;20037;-79
2022/04/12 05:18:23;;;;;;;16.33;10.43;;;5.80;99.90;;;;;;5034554;28;20061;-80
2022/04/12 05:20:49;;;;;;;18.20;10.75;;;5.90;99.90;;;;;;5033907;28;20075;-79
2022/04/12 05:23:16;;;;;;;16.70;9.93;;;6.00;99.90;;;;;;5019263;28;20461;-79
2022/04/12 05:25:41;;;;;;;15.73;9.90;;;5.90;99.90;;;;;;5035081;28;20076;-79
2022/04/12 05:28:08;;;;;;;15.05;10.18;;;5.90;99.90;;;;;;5020837;28;20133;-79
2022/04/12 05:30:34;;;;;;;17.55;10.60;;;5.90;99.90;;;;;;5016360;28;20058;-79
2022/04/12 05:33:00;;;;;;;16.75;9.18;;;6.00;99.90;;;;;;5015801;28;20034;-79
2022/04/12 05:35:25;;;;;;;12.85;7.88;;;6.00;99.90;;;;;;5015872;28;20088;-79
2022/04/12 05:37:52;;;;;;;14.15;9.48;;;6.00;99.90;;;;;;5024103;28;20029;-79
2022/04/12 05:40:19;;;;;;;14.48;8.20;;;6.20;99.90;;;;;;5044782;28;20249;-80
2022/04/12 05:42:46;;;;;;;17.05;9.80;;;6.20;99.90;;;;;;5018327;28;20065;-79
2022/04/12 05:45:12;;;;;;;13.05;8.55;;;6.30;99.90;;;;;;5015506;28;20029;-78
2022/04/12 05:47:49;;;;;;;13.88;9.68;;;6.30;99.90;;;;;;5015150;28;20026;-79
2022/04/12 05:50:16;;;;;;;15.35;8.77;;;6.40;99.90;;;;;;5015133;28;20390;-79
2022/04/12 05:52:42;;;;;;;14.57;9.48;;;6.50;99.90;;;;;;5015347;28;20109;-79
2022/04/12 05:55:17;;;;;;;15.85;8.73;;;6.60;99.90;;;;;;5016054;28;20041;-79
2022/04/12 05:58:00;;;;;;;15.55;10.02;;;6.80;99.90;;;;;;5021656;28;20060;-79
2022/04/12 06:00:28;;;;;;;15.27;9.00;;;6.80;99.90;;;;;;5035170;28;20025;-79
2022/04/12 06:02:54;;;;;;;14.98;10.10;;;6.80;99.90;;;;;;5037001;28;20168;-79
2022/04/12 06:05:22;;;;;;;14.38;9.52;;;6.70;99.90;;;;;;5024166;28;20022;-79
2022/04/12 06:07:48;;;;;;;17.45;9.90;;;6.80;99.90;;;;;;5018959;28;20442;-80
2022/04/12 06:10:16;;;;;;;13.85;9.43;;;6.80;99.90;;;;;;5030373;28;20473;-79
2022/04/12 06:12:42;;;;;;;18.00;9.80;;;6.90;99.90;;;;;;5036946;28;20112;-80
2022/04/12 06:15:09;;;;;;;16.20;10.52;;;6.90;99.90;;;;;;5017574;28;20061;-80
2022/04/12 06:17:36;;;;;;;17.00;9.75;;;7.00;99.90;;;;;;5018875;28;20528;-81
2022/04/12 06:20:22;;;;;;;14.88;8.82;;;7.10;99.90;;;;;;5036085;28;20033;-80
2022/04/12 06:22:48;;;;;;;14.77;9.18;;;7.10;99.90;;;;;;5035589;28;20034;-80
2022/04/12 06:25:14;;;;;;;14.10;8.50;;;7.30;99.90;;;;;;5040917;28;20024;-80
2022/04/12 06:27:42;;;;;;;15.70;9.23;;;7.30;99.90;;;;;;5041685;28;20025;-80
2022/04/12 06:30:10;;;;;;;14.25;8.38;;;7.50;99.90;;;;;;5032212;28;20026;-80
2022/04/12 06:32:36;;;;;;;15.18;9.75;;;7.60;99.90;;;;;;5025743;28;20036;-81
2022/04/12 06:35:04;;;;;;;15.35;9.25;;;7.70;99.90;;;;;;5039127;28;20032;-80
2022/04/12 06:37:30;;;;;;;13.10;8.40;;;7.70;99.90;;;;;;5052050;28;20033;-80
2022/04/12 06:39:59;;;;;;;13.98;9.30;;;7.80;99.90;;;;;;5044875;28;20033;-80
2022/04/12 06:42:26;;;;;;;15.85;9.90;;;8.20;99.90;;;;;;5042864;28;20029;-81
2022/04/12 06:44:52;;;;;;;15.90;9.48;;;8.50;99.90;;;;;;5042148;28;20029;-81
2022/04/12 06:47:18;;;;;;;13.75;8.70;;;9.50;99.90;;;;;;5030028;28;20048;-80
2022/04/12 06:49:48;;;;;;;14.43;8.90;;;11.40;99.90;;;;;;5029717;28;20168;-81
2022/04/12 06:52:15;;;;;;;13.82;9.00;;;13.00;99.90;;;;;;5030276;28;20030;-80
2022/04/12 06:54:41;;;;;;;12.93;8.65;;;13.30;99.90;;;;;;5044249;28;20037;-81
2022/04/12 06:57:07;;;;;;;17.50;9.68;;;14.10;99.90;;;;;;5043078;28;20370;-80
2022/04/12 06:59:33;;;;;;;12.57;8.60;;;12.80;99.90;;;;;;5040007;28;20488;-80
2022/04/12 07:01:59;;;;;;;13.98;8.27;;;11.60;99.90;;;;;;5028038;28;20504;-80
2022/04/12 07:04:25;;;;;;;12.60;7.63;;;10.00;99.90;;;;;;5000812;28;20030;-80
2022/04/12 07:06:50;;;;;;;11.55;7.70;;;9.80;99.90;;;;;;5031930;28;20056;-81
2022/04/12 07:09:20;;;;;;;12.35;8.60;;;11.60;99.90;;;;;;5023187;28;20026;-80
2022/04/12 07:11:46;;;;;;;11.27;8.90;;;13.50;99.90;;;;;;5016656;28;20561;-80
2022/04/12 07:14:12;;;;;;;12.35;8.23;;;14.50;99.90;;;;;;5000495;28;20051;-80
2022/04/12 07:16:37;;;;;;;12.13;8.70;;;15.40;99.90;;;;;;5017153;28;20014;-80
2022/04/12 07:19:03;;;;;;;12.35;7.97;;;15.60;99.90;;;;;;5015562;28;20097;-80
2022/04/12 07:21:30;;;;;;;13.77;8.63;;;17.20;99.90;;;;;;5015799;28;20054;-81
2022/04/12 07:23:58;;;;;;;10.93;7.65;;;17.00;99.90;;;;;;5016664;28;20013;-81
2022/04/12 07:26:24;;;;;;;10.18;6.97;;;19.10;99.90;;;;;;5015289;28;20888;-80
2022/04/12 07:28:50;;;;;;;9.32;7.57;;;19.20;99.90;;;;;;5015829;28;20822;-80
2022/04/12 07:31:15;;;;;;;9.10;7.20;;;18.00;99.90;;;;;;5015298;28;20053;-80
2022/04/12 07:33:41;;;;;;;9.52;7.55;;;16.90;99.90;;;;;;5002706;28;20094;-81
2022/04/12 07:36:06;;;;;;;11.02;7.22;;;16.80;99.90;;;;;;5004064;28;20028;-81
2022/04/12 07:38:32;;;;;;;9.68;7.47;;;18.00;99.90;;;;;;5015230;28;20065;-80
2022/04/12 07:40:58;;;;;;;10.43;7.47;;;17.60;99.90;;;;;;5015224;28;20060;-80
2022/04/12 07:43:23;;;;;;;10.07;7.97;;;17.20;99.90;;;;;;5014376;28;20076;-81
2022/04/12 07:45:49;;;;;;;13.07;7.75;;;19.70;99.90;;;;;;5015316;28;20022;-81
2022/04/12 07:48:14;;;;;;;10.57;8.50;;;18.10;99.90;;;;;;5014901;28;20026;-81
2022/04/12 07:50:40;;;;;;;11.52;7.28;;;16.00;99.90;;;;;;5014906;28;20112;-80
2022/04/12 07:53:06;;;;;;;10.65;7.35;;;20.50;99.90;;;;;;5015040;28;20113;-80
2022/04/12 07:55:31;;;;;;;9.10;6.70;;;20.20;99.90;;;;;;5015201;28;20378;-81
2022/04/12 07:57:57;;;;;;;9.77;7.30;;;20.50;99.90;;;;;;5015360;28;20371;-80
2022/04/12 08:00:23;;;;;;;10.63;6.88;;;19.00;99.90;;;;;;5015183;28;20167;-81
2022/04/12 08:02:49;;;;;;;8.80;7.25;;;18.60;99.90;;;;;;5014839;28;20033;-80
2022/04/12 08:05:15;;;;;;;9.65;7.32;;;17.10;99.90;;;;;;5014737;28;20022;-80
2022/04/12 08:07:47;;;;;;;8.73;7.10;;;17.60;99.90;;;;;;5014631;28;20022;-81
2022/04/12 08:10:16;;;;;;;11.13;7.55;;;18.20;99.90;;;;;;5027892;28;20021;-80
2022/04/12 08:12:42;;;;;;;9.40;7.45;;;19.00;99.90;;;;;;5034639;28;20021;-81
2022/04/12 08:15:10;;;;;;;9.93;7.50;;;20.00;99.90;;;;;;5034436;28;20084;-80
2022/04/12 08:17:36;;;;;;;10.32;7.65;;;19.90;99.90;;;;;;5033517;28;20030;-81
2022/04/12 08:20:01;;;;;;;10.13;7.32;;;19.70;99.90;;;;;;5034023;28;20076;-81
2022/04/12 08:22:27;;;;;;;11.02;7.40;;;19.10;99.90;;;;;;5018023;28;20030;-81
2022/04/12 08:24:52;;;;;;;9.18;7.28;;;19.10;99.90;;;;;;5013982;28;20060;-81
2022/04/12 08:27:18;;;;;;;10.20;7.47;;;19.30;99.90;;;;;;5014812;28;20109;-81
2022/04/12 08:29:45;;;;;;;10.48;7.78;;;20.30;99.90;;;;;;5014295;28;20101;-82
2022/04/12 08:32:10;;;;;;;15.63;7.72;;;19.90;99.90;;;;;;5016094;28;20034;-82
2022/04/12 08:34:36;;;;;;;9.13;7.25;;;19.70;99.90;;;;;;5014428;28;20026;-82
2022/04/12 08:37:02;;;;;;;8.43;7.00;;;19.90;99.90;;;;;;5014209;28;20370;-81
2022/04/12 08:39:28;;;;;;;9.20;7.13;;;20.20;99.90;;;;;;5014214;28;20021;-81
2022/04/12 08:41:57;;;;;;;10.10;7.38;;;20.60;99.90;;;;;;5014126;28;20026;-82
2022/04/12 08:45:02;;;;;;;9.10;6.93;;;22.00;99.90;;;;;;5014021;28;20102;-81
2022/04/12 08:47:31;;;;;;;9.32;7.60;;;24.00;99.90;;;;;;5010458;28;20022;-83
2022/04/12 08:50:00;;;;;;;11.07;7.80;;;23.50;99.90;;;;;;5015241;28;20111;-82
2022/04/12 08:52:27;;;;;;;9.93;7.13;;;20.90;99.90;;;;;;5014888;28;20026;-82
2022/04/12 08:54:53;;;;;;;8.73;7.07;;;22.90;99.90;;;;;;5014810;28;20030;-82
2022/04/12 08:57:19;;;;;;;13.15;7.28;;;23.00;99.90;;;;;;5014536;28;20093;-83
2022/04/12 08:59:46;;;;;;;11.65;7.72;;;24.10;99.90;;;;;;5014647;28;20023;-82
2022/04/12 09:02:12;;;;;;;12.07;7.40;;;21.60;99.90;;;;;;5015719;28;20068;-82
2022/04/12 09:04:38;;;;;;;7.85;7.05;;;20.60;99.90;;;;;;5014239;28;20026;-82
2022/04/12 09:07:08;;;;;;;9.02;6.78;;;21.00;99.90;;;;;;5014375;28;20029;-81
2022/04/12 09:09:34;;;;;;;9.23;7.57;;;20.90;99.90;;;;;;5014617;28;20658;-82
2022/04/12 09:12:06;;;;;;;9.60;7.57;;;22.10;99.90;;;;;;5015515;28;20038;-81
2022/04/12 09:14:52;;;;;;;8.98;7.45;;;23.10;99.90;;;;;;5016580;28;20042;-81
2022/04/12 09:17:28;;;;;;;8.98;7.18;;;22.50;99.90;;;;;;5015583;28;20073;-81
2022/04/12 09:19:55;;;;;;;9.40;7.35;;;23.50;99.90;;;;;;5015466;28;20057;-82
2022/04/12 09:22:25;;;;;;;8.93;7.03;;;23.70;99.90;;;;;;5015625;28;20478;-81
2022/04/12 09:24:51;;;;;;;;;;;22.00;99.90;;;;;;5015785;28;20076;-82
2022/04/12 09:27:29;;;;;;;10.55;6.97;;;22.50;99.90;;;;;;5014327;28;20581;-82
2022/04/12 09:30:01;;;;;;;11.13;7.53;;;23.70;99.90;;;;;;5014705;28;20573;-80
2022/04/12 09:32:34;;;;;;;10.75;8.00;;;22.80;99.90;;;;;;5021497;28;20036;-81
2022/04/12 09:34:59;;;;;;;10.60;7.55;;;23.40;99.90;;;;;;5034368;28;20026;-81
2022/04/12 09:37:30;;;;;;;11.68;7.22;;;23.60;99.90;;;;;;5034310;28;20022;-82
2022/04/12 09:39:59;;;;;;;9.77;7.28;;;22.50;99.90;;;;;;5034820;28;20034;-81
2022/04/12 09:42:48;;;;;;;10.07;7.40;;;20.00;99.90;;;;;;5033655;28;20033;-81
2022/04/12 09:45:16;;;;;;;9.27;5.97;;;19.40;99.90;;;;;;5020166;28;20025;-81
2022/04/12 09:47:43;;;;;;;11.48;7.45;;;22.30;99.90;;;;;;5028718;28;20071;-82
2022/04/12 09:50:10;;;;;;;9.27;7.15;;;23.30;99.90;;;;;;5002616;28;20030;-82
2022/04/12 09:52:36;;;;;;;8.45;6.60;;;21.80;99.90;;;;;;4994245;28;20027;-81
2022/04/12 09:55:04;;;;;;;9.82;6.50;;;21.20;99.90;;;;;;4994266;28;20483;-81
2022/04/12 09:57:32;;;;;;;9.50;7.03;;;20.80;99.90;;;;;;4993857;28;20035;-81
2022/04/12 09:59:58;;;;;;;11.52;7.15;;;23.80;99.90;;;;;;4993732;28;20022;-81
2022/04/12 10:02:26;;;;;;;9.80;6.68;;;23.50;99.90;;;;;;4994088;28;20493;-81
2022/04/12 10:04:53;;;;;;;9.43;6.55;;;23.40;99.90;;;;;;4993518;28;20027;-82
2022/04/12 10:07:21;;;;;;;9.35;7.30;;;24.40;99.90;;;;;;4996145;28;20073;-82
2022/04/12 10:09:55;;;;;;;9.38;7.55;;;23.60;99.90;;;;;;4997022;28;20081;-82
2022/04/12 10:12:21;;;;;;;10.98;6.85;;;21.90;99.90;;;;;;5003343;28;20504;-82
2022/04/12 10:14:47;;;;;;;10.13;6.63;;;24.70;99.90;;;;;;5016912;28;20129;-82
2022/04/12 10:17:13;;;;;;;8.45;5.80;;;23.90;99.90;;;;;;5016214;28;20054;-81
2022/04/12 10:19:40;;;;;;;10.07;6.97;;;23.90;99.90;;;;;;5016506;28;20030;-81
2022/04/12 10:22:06;;;;;;;9.27;7.05;;;26.20;99.90;;;;;;5016300;28;20022;-82
2022/04/12 10:24:33;;;;;;;9.88;6.47;;;26.20;99.90;;;;;;5016489;28;20026;-81
2022/04/12 10:26:59;;;;;;;9.30;6.97;;;24.00;99.90;;;;;;5016376;28;20037;-81
2022/04/12 10:29:25;;;;;;;10.35;7.25;;;23.70;99.90;;;;;;5016323;28;20033;-81
2022/04/12 10:31:55;;;;;;;11.38;7.75;;;21.70;99.90;;;;;;5007740;28;20418;-81
2022/04/12 10:34:21;;;;;;;9.60;7.30;;;22.20;99.90;;;;;;4997041;28;20046;-81
2022/04/12 10:36:58;;;;;;;10.63;7.32;;;21.90;99.90;;;;;;4996797;28;20336;-82
2022/04/12 10:39:50;;;;;;;10.35;7.88;;;22.60;99.90;;;;;;4996331;28;20034;-82
2022/04/12 10:42:24;;;;;;;14.60;7.72;;;23.10;99.90;;;;;;5004292;28;20058;-81
2022/04/12 10:44:56;;;;;;;10.27;7.35;;;22.00;99.90;;;;;;4998292;28;20031;-81
2022/04/12 10:47:42;;;;;;;11.32;6.80;;;22.40;99.90;;;;;;4996801;28;20116;-81
2022/04/12 10:50:13;;;;;;;11.38;6.57;;;23.70;99.90;;;;;;5019908;28;20037;-81
2022/04/12 10:52:41;;;;;;;9.77;7.35;;;24.50;99.90;;;;;;4996263;28;20037;-81
2022/04/12 10:55:12;;;;;;;11.15;7.30;;;22.70;99.90;;;;;;4995133;28;20494;-81
2022/04/12 10:57:38;;;;;;;10.50;7.32;;;22.90;99.90;;;;;;4999480;28;20050;-81
2022/04/12 11:00:17;;;;;;;10.95;7.40;;;21.20;99.90;;;;;;5035958;28;20464;-81
2022/04/12 11:03:00;;;;;;;12.13;7.20;;;22.00;99.90;;;;;;5034237;28;20133;-81
2022/04/12 11:05:42;;;;;;;11.85;6.95;;;21.50;99.90;;;;;;5035628;28;20053;-82
2022/04/12 11:08:27;;;;;;;12.15;7.55;;;20.40;99.90;;;;;;5035567;28;20072;-81
2022/04/12 11:10:54;;;;;;;11.23;7.10;;;20.00;99.90;;;;;;5035477;28;20029;-81
2022/04/12 11:13:22;;;;;;;10.77;6.70;;;19.90;99.90;;;;;;5035536;28;20044;-81
2022/04/12 11:15:59;;;;;;;11.38;7.00;;;20.00;99.90;;;;;;5035116;28;20386;-81
2022/04/12 11:18:52;;;;;;;11.27;6.97;;;20.10;99.90;;;;;;4994897;28;20042;-82
2022/04/12 11:21:19;;;;;;;10.35;7.30;;;20.30;99.90;;;;;;4996146;28;20085;-81
2022/04/12 11:24:04;;;;;;;10.15;7.43;;;19.30;99.90;;;;;;5009300;28;20022;-81
2022/04/12 11:26:44;;;;;;;10.90;7.63;;;20.30;99.90;;;;;;5010595;28;20049;-82
2022/04/12 11:29:15;;;;;;;9.55;6.97;;;18.70;99.90;;;;;;5015864;28;20496;-82
2022/04/12 11:31:42;;;;;;;11.07;7.22;;;19.20;99.90;;;;;;5015356;28;20018;-81
2022/04/12 11:34:08;;;;;;;12.35;7.72;;;18.50;99.90;;;;;;5024607;28;20434;-81
2022/04/12 11:36:46;;;;;;;10.98;7.07;;;18.70;99.90;;;;;;5035220;28;20056;-81
2022/04/12 11:39:22;;;;;;;10.52;7.28;;;19.10;99.90;;;;;;5017254;28;20030;-81
2022/04/12 11:41:48;;;;;;;9.68;6.30;;;18.80;99.90;;;;;;5014894;28;20080;-81
2022/04/12 11:44:15;;;;;;;11.25;7.30;;;19.30;99.90;;;;;;5015064;28;20393;-80
2022/04/12 11:46:41;;;;;;;7.65;6.03;;;19.60;99.90;;;;;;5015197;28;20037;-80
2022/04/12 11:49:14;;;;;;;12.15;6.75;;;19.90;99.90;;;;;;5015327;28;20025;-80
2022/04/12 11:51:47;;;;;;;8.73;5.88;;;20.30;99.90;;;;;;5015690;28;20088;-80
2022/04/12 11:54:24;;;;;;;9.73;5.78;;;21.00;99.90;;;;;;5014859;28;20057;-80
2022/04/12 11:57:21;;;;;;;9.57;6.05;;;20.20;99.90;;;;;;5015181;28;20033;-81
2022/04/12 11:59:54;;;;;;;8.70;6.13;;;20.90;99.90;;;;;;5014981;28;20096;-81
2022/04/12 12:02:25;;;;;;;9.90;7.18;;;20.20;99.90;;;;;;5014813;28;20064;-80
2022/04/12 12:05:03;;;;;;;11.43;6.90;;;20.20;99.90;;;;;;5014901;28;20026;-80
2022/04/12 12:07:29;;;;;;;9.48;6.30;;;19.80;99.90;;;;;;5014637;28;20389;-81
2022/04/12 12:09:57;;;;;;;10.27;7.30;;;19.70;99.90;;;;;;5020082;28;20118;-80
2022/04/12 12:12:39;;;;;;;10.10;6.43;;;20.40;99.90;;;;;;5016581;28;20449;-80
2022/04/12 12:15:24;;;;;;;8.20;6.20;;;20.20;99.90;;;;;;5016022;28;20076;-79
2022/04/12 12:17:54;;;;;;;10.23;6.30;;;20.70;99.90;;;;;;5014839;28;20474;-80
2022/04/12 12:20:22;;;;;;;10.88;6.18;;;20.20;99.90;;;;;;5016718;28;20370;-80
2022/04/12 12:22:51;;;;;;;9.98;6.30;;;20.20;99.90;;;;;;5014634;28;20514;-81
2022/04/12 12:25:19;;;;;;;9.33;6.57;;;20.40;99.90;;;;;;5014684;28;20462;-81
2022/04/12 12:27:53;;;;;;;10.68;6.47;;;19.30;99.90;;;;;;5014579;28;20084;-80
2022/04/12 12:30:29;;;;;;;8.70;6.00;;;19.30;99.90;;;;;;5014191;28;20574;-80
2022/04/12 12:32:56;;;;;;;9.95;6.85;;;19.20;99.90;;;;;;5015538;28;20065;-80
2022/04/12 12:35:29;;;;;;;9.60;7.00;;;19.70;99.90;;;;;;5014121;28;20034;-81
2022/04/12 12:38:08;;;;;;;9.02;6.45;;;18.90;99.90;;;;;;5014774;28;20026;-80
2022/04/12 12:40:33;;;;;;;8.65;6.70;;;18.50;99.90;;;;;;5030540;28;20072;-80
2022/04/12 12:43:02;;;;;;;8.98;6.55;;;18.00;99.90;;;;;;5014095;28;20022;-79
2022/04/12 12:45:28;;;;;;;10.23;6.72;;;17.90;99.90;;;;;;5014215;28;20026;-81
2022/04/12 12:47:56;;;;;;;9.18;6.00;;;17.70;99.90;;;;;;5014083;28;20038;-80
2022/04/12 12:50:26;;;;;;;9.68;6.57;;;17.90;99.90;;;;;;5013887;28;20440;-80
2022/04/12 12:53:00;;;;;;;9.13;6.68;;;18.10;99.90;;;;;;5014021;28;20045;-80